Time;durP1;ratioP1;P1;durP2;ratioP2;P2;SDS_P1;SDS_P2;PMS_P1;PMS_P2;Temp;Humidity;BMP_temperature;BMP_pressure;BME280_temperature;BME280_humidity;BME280_pressure;Samples;Min_cycle;Max_cycle;Signal;HPM_P1;HPM_P2
2023/11/30 00:00:18;;;;;;;28.63;26.33;;;6.60;99.90;;;;;;5046578;28;20036;-71
2023/11/30 00:02:44;;;;;;;31.10;28.53;;;6.60;99.90;;;;;;5032369;28;20041;-70
2023/11/30 00:05:10;;;;;;;27.67;25.23;;;6.60;99.90;;;;;;5047659;28;20026;-71
2023/11/30 00:07:37;;;;;;;29.67;27.27;;;6.60;99.90;;;;;;5030964;28;20101;-71
2023/11/30 00:10:03;;;;;;;28.33;25.90;;;6.60;99.90;;;;;;5047330;28;20033;-71
2023/11/30 00:12:29;;;;;;;27.93;25.43;;;6.60;99.90;;;;;;5032164;28;20033;-71
2023/11/30 00:14:55;;;;;;;28.47;25.80;;;6.60;99.90;;;;;;5031638;28;20056;-71
2023/11/30 00:17:21;;;;;;;27.60;25.10;;;6.60;99.90;;;;;;5031603;28;20038;-71
2023/11/30 00:19:47;;;;;;;28.92;26.60;;;6.60;99.90;;;;;;5031818;28;20505;-71
2023/11/30 00:22:13;;;;;;;30.53;28.17;;;6.70;99.90;;;;;;5031487;28;20053;-71
2023/11/30 00:24:39;;;;;;;31.30;28.67;;;6.80;99.90;;;;;;5031983;28;20032;-71
2023/11/30 00:27:05;;;;;;;28.63;26.43;;;6.90;99.90;;;;;;5031759;28;20055;-71
2023/11/30 00:29:32;;;;;;;30.63;28.27;;;7.00;99.90;;;;;;5030815;28;20038;-71
2023/11/30 00:31:58;;;;;;;30.60;28.23;;;6.80;99.90;;;;;;5015626;28;20498;-72
2023/11/30 00:34:24;;;;;;;29.70;27.42;;;6.70;99.90;;;;;;5026889;28;20026;-71
2023/11/30 00:36:50;;;;;;;29.65;27.23;;;6.80;99.90;;;;;;5012097;28;20034;-72
2023/11/30 00:39:16;;;;;;;29.77;27.47;;;6.90;99.90;;;;;;5027508;28;20110;-71
2023/11/30 00:41:42;;;;;;;27.40;25.10;;;6.90;99.90;;;;;;5011997;28;20494;-71
2023/11/30 00:44:08;;;;;;;26.08;23.92;;;6.90;99.90;;;;;;5011923;28;20030;-71
2023/11/30 00:46:34;;;;;;;25.15;23.05;;;6.80;99.90;;;;;;5009613;28;20049;-71
2023/11/30 00:49:01;;;;;;;26.80;24.67;;;6.90;99.90;;;;;;5012386;28;20034;-71
2023/11/30 00:51:29;;;;;;;27.83;25.83;;;6.80;99.90;;;;;;5011498;28;20065;-71
2023/11/30 00:53:55;;;;;;;29.50;27.13;;;6.80;99.90;;;;;;5027151;28;20374;-71
2023/11/30 00:56:21;;;;;;;34.97;32.17;;;6.80;99.90;;;;;;5011467;28;20030;-71
2023/11/30 00:58:47;;;;;;;23.30;21.47;;;6.80;99.90;;;;;;5011615;28;20034;-71
2023/11/30 01:01:13;;;;;;;24.43;22.30;;;6.80;99.90;;;;;;5012583;28;20038;-71
2023/11/30 01:03:39;;;;;;;26.37;24.30;;;6.80;99.90;;;;;;5014857;28;20042;-71
2023/11/30 01:06:06;;;;;;;29.63;27.23;;;6.80;99.90;;;;;;5015190;28;20038;-70
2023/11/30 01:08:32;;;;;;;23.47;21.57;;;6.70;99.90;;;;;;5015923;28;20034;-71
2023/11/30 01:10:58;;;;;;;20.73;18.97;;;6.80;99.90;;;;;;5015127;28;20037;-69
2023/11/30 01:13:24;;;;;;;23.37;21.27;;;6.80;99.90;;;;;;5015379;28;20037;-69
2023/11/30 01:15:50;;;;;;;30.10;27.97;;;6.80;99.90;;;;;;5014485;28;20041;-69
2023/11/30 01:18:16;;;;;;;25.67;23.67;;;6.90;99.90;;;;;;5015173;28;20044;-68
2023/11/30 01:20:42;;;;;;;25.65;23.75;;;6.90;99.90;;;;;;5015329;28;20036;-69
2023/11/30 01:23:08;;;;;;;23.37;21.40;;;6.90;99.90;;;;;;5013646;28;20442;-69
2023/11/30 01:25:34;;;;;;;26.03;24.03;;;6.80;99.90;;;;;;5015153;28;20037;-68
2023/11/30 01:28:00;;;;;;;26.83;24.60;;;6.80;99.90;;;;;;5015165;28;20045;-69
2023/11/30 01:30:27;;;;;;;30.53;28.00;;;6.90;99.90;;;;;;5014077;28;20054;-69
2023/11/30 01:32:53;;;;;;;30.53;28.47;;;6.80;99.90;;;;;;5014498;28;20037;-69
2023/11/30 01:35:19;;;;;;;21.87;20.13;;;6.60;99.90;;;;;;5030114;28;20041;-69
2023/11/30 01:37:45;;;;;;;20.67;19.10;;;6.60;99.90;;;;;;5015258;28;20037;-68
2023/11/30 01:40:11;;;;;;;24.13;22.30;;;6.60;99.90;;;;;;5014964;28;20048;-69
2023/11/30 01:42:37;;;;;;;24.73;22.70;;;6.70;99.90;;;;;;5013551;28;20057;-69
2023/11/30 01:45:04;;;;;;;27.63;25.73;;;6.70;99.90;;;;;;5014192;28;20045;-68
2023/11/30 01:47:30;;;;;;;23.90;22.20;;;6.70;99.90;;;;;;5014700;28;20038;-68
2023/11/30 01:49:56;;;;;;;23.43;21.63;;;6.70;99.90;;;;;;5030684;28;20033;-69
2023/11/30 01:52:23;;;;;;;22.67;21.07;;;6.70;99.90;;;;;;5014632;28;20034;-69
2023/11/30 01:54:49;;;;;;;21.97;20.37;;;6.60;99.90;;;;;;5030040;28;20463;-68
2023/11/30 01:57:15;;;;;;;20.50;19.10;;;6.60;99.90;;;;;;5013917;28;20026;-69
2023/11/30 01:59:42;;;;;;;24.67;22.73;;;6.60;99.90;;;;;;5014754;28;20034;-69
2023/11/30 02:02:08;;;;;;;19.77;18.37;;;6.60;99.90;;;;;;5029308;28;20046;-69
2023/11/30 02:04:34;;;;;;;21.93;20.13;;;6.60;99.90;;;;;;4997413;28;20034;-68
2023/11/30 02:07:00;;;;;;;21.00;19.40;;;6.50;99.90;;;;;;4996769;28;20049;-69
2023/11/30 02:09:26;;;;;;;25.40;23.27;;;6.50;99.90;;;;;;5014278;28;20026;-68
2023/11/30 02:11:52;;;;;;;24.23;22.60;;;6.60;99.90;;;;;;5013803;28;20521;-69
2023/11/30 02:14:19;;;;;;;21.17;19.57;;;6.60;99.90;;;;;;5014321;28;20042;-68
2023/11/30 02:16:45;;;;;;;21.40;19.90;;;6.50;99.90;;;;;;5013971;28;20037;-68
2023/11/30 02:19:11;;;;;;;22.13;20.43;;;6.60;99.90;;;;;;5014055;28;20072;-68
2023/11/30 02:21:37;;;;;;;19.80;17.93;;;6.50;99.90;;;;;;5028989;28;20034;-69
2023/11/30 02:24:03;;;;;;;22.00;20.27;;;6.60;99.90;;;;;;5013947;28;20072;-72
2023/11/30 02:26:29;;;;;;;19.27;17.97;;;6.60;99.90;;;;;;5004255;28;20038;-72
2023/11/30 02:28:56;;;;;;;20.40;18.47;;;6.60;99.90;;;;;;5029605;28;20030;-71
2023/11/30 02:31:22;;;;;;;27.57;25.87;;;6.70;99.90;;;;;;5013457;28;20041;-71
2023/11/30 02:33:48;;;;;;;20.87;19.27;;;6.60;99.90;;;;;;5014089;28;20034;-71
2023/11/30 02:36:14;;;;;;;20.50;18.87;;;6.50;99.90;;;;;;5013492;28;20038;-69
2023/11/30 02:38:40;;;;;;;25.60;23.90;;;6.60;99.90;;;;;;5013482;28;20053;-71
2023/11/30 02:41:06;;;;;;;20.00;18.60;;;6.60;99.90;;;;;;5029120;28;20056;-71
2023/11/30 02:43:32;;;;;;;21.80;20.20;;;6.50;99.90;;;;;;5013662;28;20050;-71
2023/11/30 02:45:58;;;;;;;20.93;19.27;;;6.60;99.90;;;;;;5028539;28;20026;-71
2023/11/30 02:48:24;;;;;;;20.80;19.07;;;6.70;99.90;;;;;;5014041;28;20030;-71
2023/11/30 02:50:50;;;;;;;32.87;30.70;;;6.60;99.90;;;;;;5013506;28;20030;-71
2023/11/30 02:53:17;;;;;;;26.50;24.87;;;6.50;99.90;;;;;;5013567;28;20387;-71
2023/11/30 02:55:43;;;;;;;22.90;21.40;;;6.40;99.90;;;;;;5012804;28;20033;-71
2023/11/30 02:58:09;;;;;;;22.70;21.20;;;6.50;99.90;;;;;;5013631;28;20395;-71
2023/11/30 03:00:35;;;;;;;23.03;21.50;;;6.40;99.90;;;;;;5012707;28;20030;-71
2023/11/30 03:03:01;;;;;;;22.00;20.27;;;6.40;99.90;;;;;;5013550;28;20033;-69
2023/11/30 03:05:27;;;;;;;23.17;21.53;;;6.50;99.90;;;;;;5027971;28;20030;-69
2023/11/30 03:07:53;;;;;;;23.90;22.10;;;6.50;99.90;;;;;;5028485;28;20038;-69
2023/11/30 03:10:19;;;;;;;23.30;21.70;;;6.40;99.90;;;;;;5028408;28;20398;-69
2023/11/30 03:12:45;;;;;;;20.97;19.27;;;6.40;99.90;;;;;;5012180;28;20046;-68
2023/11/30 03:15:13;;;;;;;21.73;20.13;;;6.40;99.90;;;;;;5012625;28;20034;-69
2023/11/30 03:17:39;;;;;;;23.13;21.53;;;6.30;99.90;;;;;;5012825;28;20038;-69
2023/11/30 03:20:06;;;;;;;29.00;26.80;;;6.40;99.90;;;;;;5028583;28;20061;-68
2023/11/30 03:22:32;;;;;;;21.30;19.77;;;6.40;99.90;;;;;;5012736;28;20050;-69
2023/11/30 03:24:58;;;;;;;30.23;27.87;;;6.30;99.90;;;;;;5012414;28;20026;-68
2023/11/30 03:27:24;;;;;;;26.20;24.60;;;6.40;99.90;;;;;;5012539;28;20499;-69
2023/11/30 03:29:51;;;;;;;23.93;22.07;;;6.40;99.90;;;;;;5013061;28;20030;-69
2023/11/30 03:32:17;;;;;;;24.13;22.53;;;6.30;99.90;;;;;;5012431;28;20041;-68
2023/11/30 03:34:43;;;;;;;25.17;23.23;;;6.30;99.90;;;;;;5012874;28;20026;-69
2023/11/30 03:37:09;;;;;;;23.77;22.07;;;6.30;99.90;;;;;;5012421;28;20391;-68
2023/11/30 03:39:35;;;;;;;26.50;24.50;;;6.30;99.90;;;;;;5013304;28;20022;-68
2023/11/30 03:42:01;;;;;;;25.73;23.93;;;6.30;99.90;;;;;;5012428;28;20034;-69
2023/11/30 03:44:27;;;;;;;25.43;23.73;;;6.20;99.90;;;;;;5012649;28;20032;-69
2023/11/30 03:46:53;;;;;;;26.30;24.40;;;6.20;99.90;;;;;;5012023;28;20041;-68
2023/11/30 03:49:19;;;;;;;22.03;20.27;;;6.30;99.90;;;;;;5012918;28;20037;-68
2023/11/30 03:51:45;;;;;;;21.93;20.33;;;6.30;99.90;;;;;;5012031;28;20045;-69
2023/11/30 03:54:11;;;;;;;21.57;20.07;;;6.30;99.90;;;;;;5012686;28;20467;-69
2023/11/30 03:56:37;;;;;;;22.07;20.57;;;6.30;99.90;;;;;;5012546;28;20046;-69
2023/11/30 03:59:03;;;;;;;23.80;22.20;;;6.30;99.90;;;;;;5012278;28;20521;-69
2023/11/30 04:01:30;;;;;;;23.53;21.93;;;6.20;99.90;;;;;;5011622;28;20041;-69
2023/11/30 04:03:56;;;;;;;22.80;21.20;;;6.20;99.90;;;;;;5012460;28;20494;-68
2023/11/30 04:06:22;;;;;;;23.77;21.90;;;6.20;99.90;;;;;;5012036;28;20030;-68
2023/11/30 04:08:51;;;;;;;24.23;22.57;;;6.10;99.90;;;;;;5027613;28;20382;-69
2023/11/30 04:11:17;;;;;;;22.03;20.33;;;6.20;99.90;;;;;;5012411;28;20053;-69
2023/11/30 04:13:44;;;;;;;21.30;19.70;;;6.10;99.90;;;;;;5012125;28;20042;-69
2023/11/30 04:16:13;;;;;;;21.07;19.57;;;6.10;99.90;;;;;;5012027;28;20038;-69
2023/11/30 04:18:39;;;;;;;21.53;19.97;;;6.20;99.90;;;;;;5027601;28;20049;-68
2023/11/30 04:21:07;;;;;;;21.83;20.33;;;6.20;99.90;;;;;;5012026;28;20045;-69
2023/11/30 04:23:33;;;;;;;21.53;20.00;;;6.20;99.90;;;;;;5027568;28;20050;-68
2023/11/30 04:25:59;;;;;;;20.97;19.37;;;6.30;99.90;;;;;;5010787;28;20394;-69
2023/11/30 04:28:25;;;;;;;20.47;18.77;;;6.30;99.90;;;;;;5012537;28;20049;-68
2023/11/30 04:30:52;;;;;;;21.20;19.50;;;6.40;99.90;;;;;;5018003;28;20037;-68
2023/11/30 04:33:18;;;;;;;21.10;19.60;;;6.30;99.90;;;;;;5032033;28;20437;-68
2023/11/30 04:35:44;;;;;;;20.40;18.80;;;6.30;99.90;;;;;;5033437;28;20034;-69
2023/11/30 04:38:10;;;;;;;21.20;19.60;;;6.20;99.90;;;;;;5036462;28;20029;-69
2023/11/30 04:40:36;;;;;;;23.53;21.83;;;6.20;99.90;;;;;;5035956;28;20035;-69
2023/11/30 04:43:02;;;;;;;20.37;18.63;;;6.20;99.90;;;;;;5035756;28;20040;-69
2023/11/30 04:45:28;;;;;;;20.37;18.77;;;6.10;99.90;;;;;;5035214;28;20084;-68
2023/11/30 04:47:55;;;;;;;20.77;18.90;;;6.10;99.90;;;;;;5036133;28;20042;-69
2023/11/30 04:50:21;;;;;;;20.87;19.23;;;6.00;99.90;;;;;;5035338;28;20072;-69
2023/11/30 04:52:47;;;;;;;21.37;19.60;;;6.00;99.90;;;;;;5036020;28;20028;-71
2023/11/30 04:55:13;;;;;;;21.20;19.60;;;6.10;99.90;;;;;;5034953;28;20375;-72
2023/11/30 04:57:39;;;;;;;21.47;19.77;;;6.30;99.90;;;;;;5035293;28;20048;-72
2023/11/30 05:00:06;;;;;;;21.50;20.07;;;6.20;99.90;;;;;;5050919;28;20037;-71
2023/11/30 05:02:33;;;;;;;20.53;19.13;;;6.30;99.90;;;;;;5050637;28;20394;-72
2023/11/30 05:04:59;;;;;;;22.27;20.47;;;6.30;99.90;;;;;;5050878;28;20394;-72
2023/11/30 05:07:25;;;;;;;22.23;20.63;;;6.40;99.90;;;;;;5035070;28;20037;-72
2023/11/30 05:09:51;;;;;;;23.60;21.73;;;6.40;99.90;;;;;;5035656;28;20479;-72
2023/11/30 05:12:17;;;;;;;22.77;21.03;;;6.40;99.90;;;;;;5035085;28;20038;-72
2023/11/30 05:14:43;;;;;;;24.30;22.37;;;6.20;99.90;;;;;;5050841;28;20041;-72
2023/11/30 05:17:09;;;;;;;23.03;21.23;;;6.20;99.90;;;;;;5034034;28;20597;-71
2023/11/30 05:19:35;;;;;;;23.07;21.43;;;6.10;99.90;;;;;;5034535;28;20037;-72
2023/11/30 05:22:01;;;;;;;23.77;22.10;;;6.10;99.90;;;;;;5033807;28;20037;-72
2023/11/30 05:24:27;;;;;;;21.70;20.07;;;6.20;99.90;;;;;;5034682;28;20049;-71
2023/11/30 05:26:54;;;;;;;24.20;18.67;;;6.20;99.90;;;;;;5034633;28;20033;-72
2023/11/30 05:29:20;;;;;;;22.23;20.10;;;6.10;99.90;;;;;;5035214;28;20038;-72
2023/11/30 05:31:46;;;;;;;27.70;25.83;;;6.10;99.90;;;;;;5034250;28;20041;-72
2023/11/30 05:34:12;;;;;;;22.53;20.60;;;6.10;99.90;;;;;;5033617;28;20033;-72
2023/11/30 05:36:38;;;;;;;22.93;21.33;;;6.10;99.90;;;;;;5033920;28;20053;-72
2023/11/30 05:39:06;;;;;;;35.47;22.63;;;6.00;99.90;;;;;;5034694;28;20026;-72
2023/11/30 05:41:32;;;;;;;23.80;21.70;;;6.10;99.90;;;;;;5034697;28;20050;-72
2023/11/30 05:43:58;;;;;;;22.37;20.67;;;6.20;99.90;;;;;;5034820;28;20034;-72
2023/11/30 05:46:24;;;;;;;23.80;22.13;;;6.20;99.90;;;;;;5048121;28;20061;-72
2023/11/30 05:48:50;;;;;;;24.10;22.27;;;6.20;99.90;;;;;;5034475;28;20040;-71
2023/11/30 05:51:16;;;;;;;23.37;21.50;;;6.10;99.90;;;;;;5034673;28;20363;-72
2023/11/30 05:53:42;;;;;;;22.53;20.70;;;6.10;99.90;;;;;;5050101;28;20037;-72
2023/11/30 05:56:09;;;;;;;23.53;21.57;;;6.20;99.90;;;;;;5049271;28;20413;-72
2023/11/30 05:58:35;;;;;;;25.63;23.77;;;6.20;99.90;;;;;;5034530;28;20029;-72
2023/11/30 06:01:01;;;;;;;23.37;21.27;;;6.40;99.90;;;;;;5049282;28;20044;-71
2023/11/30 06:03:27;;;;;;;27.27;25.27;;;6.40;99.90;;;;;;5034145;28;20037;-72
2023/11/30 06:05:54;;;;;;;37.53;34.87;;;6.30;99.90;;;;;;5034085;28;20033;-72
2023/11/30 06:08:20;;;;;;;22.33;20.73;;;6.50;99.90;;;;;;5034364;28;20026;-72
2023/11/30 06:10:46;;;;;;;23.27;21.37;;;6.50;99.90;;;;;;5034197;28;20033;-71
2023/11/30 06:13:14;;;;;;;22.90;21.17;;;6.40;99.90;;;;;;5015546;28;20041;-72
2023/11/30 06:15:40;;;;;;;24.97;22.97;;;6.20;99.90;;;;;;5032375;28;20030;-72
2023/11/30 06:18:06;;;;;;;25.87;23.67;;;6.20;99.90;;;;;;5048666;28;20033;-69
2023/11/30 06:20:33;;;;;;;24.00;22.20;;;6.40;99.90;;;;;;5048683;28;20750;-69
2023/11/30 06:22:59;;;;;;;26.40;23.67;;;6.60;99.90;;;;;;5033959;28;20044;-69
2023/11/30 06:25:25;;;;;;;57.77;32.77;;;6.60;99.90;;;;;;5034350;28;20033;-69
2023/11/30 06:27:52;;;;;;;91.60;43.13;;;6.60;99.90;;;;;;5034251;28;20068;-69
2023/11/30 06:30:18;;;;;;;83.13;41.33;;;6.70;99.90;;;;;;5032855;28;20035;-69
2023/11/30 06:32:44;;;;;;;67.28;37.55;;;6.70;99.90;;;;;;5032968;28;20382;-69
2023/11/30 06:35:10;;;;;;;47.30;32.70;;;6.70;99.90;;;;;;5033350;28;20033;-69
2023/11/30 06:37:37;;;;;;;25.03;22.37;;;6.70;99.90;;;;;;5033042;28;20030;-69
2023/11/30 06:40:03;;;;;;;22.23;20.30;;;6.60;99.90;;;;;;5033414;28;20034;-69
2023/11/30 06:42:29;;;;;;;39.63;36.37;;;6.50;99.90;;;;;;5032943;28;20030;-69
2023/11/30 06:44:55;;;;;;;46.93;43.63;;;6.40;99.90;;;;;;5033373;28;20037;-69
2023/11/30 06:47:21;;;;;;;25.33;22.90;;;6.40;99.90;;;;;;5032721;28;20037;-69
2023/11/30 06:49:48;;;;;;;24.53;22.33;;;6.40;99.90;;;;;;5033855;28;20040;-69
2023/11/30 06:52:14;;;;;;;23.80;21.70;;;6.30;99.90;;;;;;5033239;28;20034;-69
2023/11/30 06:54:40;;;;;;;24.53;22.63;;;6.30;99.90;;;;;;5034092;28;20033;-69
2023/11/30 06:57:06;;;;;;;22.83;21.00;;;6.40;99.90;;;;;;5031993;28;20041;-69
2023/11/30 06:59:33;;;;;;;22.17;20.23;;;6.40;99.90;;;;;;5047508;28;20032;-69
2023/11/30 07:01:59;;;;;;;24.07;22.10;;;6.40;99.90;;;;;;5016437;28;20042;-68
2023/11/30 07:04:25;;;;;;;24.87;22.60;;;6.40;99.90;;;;;;5013605;28;20038;-69
2023/11/30 07:06:51;;;;;;;31.30;28.23;;;6.40;99.90;;;;;;5012890;28;20022;-69
2023/11/30 07:09:17;;;;;;;37.07;29.17;;;6.50;99.90;;;;;;5013682;28;20364;-69
2023/11/30 07:11:43;;;;;;;41.90;38.37;;;6.40;99.90;;;;;;5013328;28;20036;-68
2023/11/30 07:14:09;;;;;;;55.80;51.17;;;6.30;99.90;;;;;;5013031;28;20041;-68
2023/11/30 07:16:35;;;;;;;58.43;52.93;;;6.30;99.90;;;;;;5012660;28;20034;-69
2023/11/30 07:19:01;;;;;;;52.13;47.50;;;6.30;99.90;;;;;;5012899;28;20057;-69
2023/11/30 07:21:27;;;;;;;46.13;42.50;;;6.20;99.90;;;;;;5010937;28;20045;-69
2023/11/30 07:23:54;;;;;;;51.30;47.87;;;6.20;99.90;;;;;;5009000;28;20053;-69
2023/11/30 07:26:20;;;;;;;49.07;45.63;;;6.20;99.90;;;;;;5014391;28;20041;-69
2023/11/30 07:28:46;;;;;;;44.93;41.57;;;6.20;99.90;;;;;;5009354;28;20399;-69
2023/11/30 07:31:19;;;;;;;42.27;39.17;;;6.10;99.90;;;;;;5019840;28;20060;-69
2023/11/30 07:33:46;;;;;;;48.63;45.30;;;6.00;99.90;;;;;;5048006;28;20040;-72
2023/11/30 07:36:12;;;;;;;45.80;42.80;;;6.10;99.90;;;;;;5032777;28;20037;-72
2023/11/30 07:38:38;;;;;;;33.57;31.17;;;5.90;99.90;;;;;;5019368;28;20038;-72
2023/11/30 07:41:05;;;;;;;29.13;26.67;;;5.70;99.90;;;;;;5032605;28;20025;-71
2023/11/30 07:43:31;;;;;;;28.73;26.07;;;5.80;99.90;;;;;;5038119;28;20414;-71
2023/11/30 07:45:58;;;;;;;24.70;22.27;;;5.80;99.90;;;;;;5011506;28;20038;-71
2023/11/30 07:48:24;;;;;;;27.30;25.00;;;5.80;99.90;;;;;;5011282;28;20045;-71
2023/11/30 07:50:51;;;;;;;27.33;24.87;;;5.80;99.90;;;;;;5029489;28;20034;-71
2023/11/30 07:53:18;;;;;;;28.40;25.73;;;5.70;99.90;;;;;;5032661;28;20040;-71
2023/11/30 07:55:44;;;;;;;28.17;25.83;;;5.70;99.90;;;;;;4992632;28;20053;-71
2023/11/30 07:58:11;;;;;;;26.83;24.23;;;5.70;99.90;;;;;;4995451;28;20034;-71
2023/11/30 08:00:37;;;;;;;32.50;29.63;;;5.80;99.90;;;;;;5010163;28;20038;-71
2023/11/30 08:03:03;;;;;;;33.63;30.47;;;5.70;99.90;;;;;;5012487;28;20035;-71
2023/11/30 08:05:29;;;;;;;32.10;29.40;;;5.60;99.90;;;;;;5012494;28;20056;-71
2023/11/30 08:07:55;;;;;;;30.27;27.67;;;5.50;99.90;;;;;;5012631;28;20052;-71
2023/11/30 08:10:21;;;;;;;32.33;29.40;;;5.30;99.90;;;;;;5012156;28;20041;-71
2023/11/30 08:12:48;;;;;;;29.83;27.30;;;5.30;99.90;;;;;;5006085;28;20045;-70
2023/11/30 08:15:14;;;;;;;32.27;29.10;;;5.40;99.90;;;;;;5012107;28;20096;-71
2023/11/30 08:17:42;;;;;;;29.77;26.53;;;5.50;99.90;;;;;;5012056;28;20034;-71
2023/11/30 08:20:13;;;;;;;27.73;25.43;;;5.40;99.90;;;;;;5011960;28;20510;-71
2023/11/30 08:22:42;;;;;;;33.07;24.53;;;5.40;99.90;;;;;;5010782;28;20517;-71
2023/11/30 08:25:11;;;;;;;25.23;22.73;;;5.20;99.90;;;;;;5015096;28;20045;-71
2023/11/30 08:27:40;;;;;;;23.90;21.67;;;5.30;99.90;;;;;;5010331;28;20041;-71
2023/11/30 08:30:09;;;;;;;25.30;22.60;;;5.40;99.90;;;;;;5011116;28;20065;-71
2023/11/30 08:32:37;;;;;;;28.60;25.60;;;5.60;99.90;;;;;;5012195;28;20049;-70
2023/11/30 08:35:04;;;;;;;31.80;28.47;;;5.70;99.90;;;;;;5044706;28;20025;-70
2023/11/30 08:37:30;;;;;;;130.97;36.03;;;5.70;99.90;;;;;;5011351;28;20054;-71
2023/11/30 08:39:56;;;;;;;30.50;26.13;;;5.80;99.90;;;;;;5017117;28;20053;-72
2023/11/30 08:42:23;;;;;;;31.07;25.73;;;5.90;99.90;;;;;;5013073;28;20030;-70
2023/11/30 08:44:49;;;;;;;27.67;25.33;;;6.00;99.90;;;;;;5008899;28;20050;-70
2023/11/30 08:47:15;;;;;;;27.03;24.73;;;6.00;99.90;;;;;;5008723;28;20034;-70
2023/11/30 08:49:41;;;;;;;31.80;28.93;;;5.80;99.90;;;;;;5012105;28;20077;-70
2023/11/30 08:52:07;;;;;;;35.13;32.03;;;5.80;99.90;;;;;;5011575;28;20443;-70
2023/11/30 08:54:33;;;;;;;34.13;31.53;;;5.80;99.90;;;;;;5012275;28;20037;-70
2023/11/30 08:56:59;;;;;;;34.90;31.90;;;5.80;99.90;;;;;;5011388;28;20045;-70
2023/11/30 08:59:25;;;;;;;34.10;31.23;;;5.70;99.90;;;;;;5011146;28;20030;-70
2023/11/30 09:01:51;;;;;;;36.23;33.20;;;5.70;99.90;;;;;;5006590;28;20042;-70
2023/11/30 09:04:18;;;;;;;31.30;28.77;;;5.80;99.90;;;;;;5005375;28;20640;-70
2023/11/30 09:06:44;;;;;;;28.17;25.40;;;5.80;99.90;;;;;;5011945;28;20049;-70
2023/11/30 09:09:10;;;;;;;40.37;37.53;;;5.80;99.90;;;;;;5026958;28;20041;-70
2023/11/30 09:11:36;;;;;;;37.30;34.17;;;5.70;99.90;;;;;;5011071;28;20041;-70
2023/11/30 09:14:02;;;;;;;34.43;31.93;;;5.70;99.90;;;;;;5017806;28;20029;-70
2023/11/30 09:16:28;;;;;;;31.30;28.97;;;5.80;99.90;;;;;;5014831;28;20038;-70
2023/11/30 09:18:54;;;;;;;35.30;32.90;;;5.90;99.90;;;;;;5011915;28;20045;-70
2023/11/30 09:21:21;;;;;;;32.80;29.93;;;5.90;99.90;;;;;;5010724;28;20045;-70
2023/11/30 09:23:47;;;;;;;36.50;33.73;;;6.00;99.90;;;;;;5030283;28;20560;-70
2023/11/30 09:26:13;;;;;;;37.70;34.90;;;6.10;99.90;;;;;;5011577;28;20041;-71
2023/11/30 09:28:39;;;;;;;34.83;31.93;;;6.10;99.90;;;;;;5015231;28;20038;-70
2023/11/30 09:31:07;;;;;;;25.27;22.87;;;6.20;99.90;;;;;;5014889;28;20038;-70
2023/11/30 09:33:33;;;;;;;32.67;30.17;;;6.20;99.90;;;;;;5030003;28;20033;-70
2023/11/30 09:35:59;;;;;;;36.57;33.80;;;6.00;99.90;;;;;;5015107;28;20034;-70
2023/11/30 09:38:25;;;;;;;30.60;28.00;;;6.00;99.90;;;;;;5030505;28;20034;-70
2023/11/30 09:40:52;;;;;;;26.40;24.30;;;6.10;99.90;;;;;;5014781;28;20390;-70
2023/11/30 09:43:18;;;;;;;30.93;28.73;;;6.00;99.90;;;;;;5014505;28;20042;-70
2023/11/30 09:45:48;;;;;;;33.53;31.10;;;5.90;99.90;;;;;;5029400;28;20082;-70
2023/11/30 09:48:14;;;;;;;34.90;32.33;;;6.00;99.90;;;;;;5015022;28;20038;-70
2023/11/30 09:50:40;;;;;;;33.77;31.27;;;6.10;99.90;;;;;;5014545;28;20113;-72
2023/11/30 09:53:08;;;;;;;31.90;29.43;;;6.30;99.90;;;;;;5029829;28;20038;-72
2023/11/30 09:55:35;;;;;;;32.53;30.03;;;6.30;99.90;;;;;;5027099;28;20352;-71
2023/11/30 09:58:01;;;;;;;33.03;30.63;;;6.40;99.90;;;;;;5032758;28;20056;-72
2023/11/30 10:00:27;;;;;;;34.13;31.53;;;6.40;99.90;;;;;;5030057;28;20117;-71
2023/11/30 10:02:53;;;;;;;36.40;33.70;;;6.30;99.90;;;;;;5030043;28;20383;-71
2023/11/30 10:05:19;;;;;;;30.87;28.57;;;6.40;99.90;;;;;;5029103;28;20053;-72
2023/11/30 10:07:45;;;;;;;32.00;29.60;;;6.50;99.90;;;;;;5014683;28;20037;-72
2023/11/30 10:10:11;;;;;;;35.38;32.78;;;6.50;99.90;;;;;;5008575;28;20613;-71
2023/11/30 10:12:37;;;;;;;36.03;33.27;;;6.50;99.90;;;;;;5013746;28;20038;-71
2023/11/30 10:15:04;;;;;;;34.07;31.37;;;6.50;99.90;;;;;;5013945;28;20463;-71
2023/11/30 10:17:30;;;;;;;30.63;28.23;;;6.60;99.90;;;;;;5034070;28;20041;-71
2023/11/30 10:19:57;;;;;;;29.93;27.17;;;6.50;99.90;;;;;;5034063;28;20405;-71
2023/11/30 10:22:23;;;;;;;34.73;31.87;;;6.50;99.90;;;;;;5061177;28;20029;-72
2023/11/30 10:24:50;;;;;;;31.42;28.70;;;6.60;99.90;;;;;;5048812;28;20045;-71
2023/11/30 10:27:21;;;;;;;29.93;27.73;;;6.60;99.90;;;;;;5025000;28;20037;-72
2023/11/30 10:29:48;;;;;;;30.80;28.40;;;6.70;99.90;;;;;;5033212;28;20052;-71
2023/11/30 10:32:15;;;;;;;27.17;24.93;;;6.70;99.90;;;;;;5034692;28;20119;-71
2023/11/30 10:34:48;;;;;;;31.65;29.33;;;6.80;99.90;;;;;;5057969;28;20037;-72
2023/11/30 10:37:18;;;;;;;26.57;24.57;;;6.70;99.90;;;;;;5036134;28;20045;-71
2023/11/30 10:39:44;;;;;;;28.95;26.83;;;6.70;99.90;;;;;;5052383;28;20390;-71
2023/11/30 10:42:12;;;;;;;27.60;25.60;;;6.80;99.90;;;;;;5032014;28;20021;-71
2023/11/30 10:44:38;;;;;;;30.48;28.15;;;6.80;99.90;;;;;;5032058;28;20037;-71
2023/11/30 10:47:04;;;;;;;31.30;28.85;;;6.90;99.90;;;;;;5048363;28;20038;-72
2023/11/30 10:49:31;;;;;;;29.77;27.42;;;7.00;99.90;;;;;;5028894;28;20037;-71
2023/11/30 10:52:00;;;;;;;38.47;35.70;;;7.10;99.90;;;;;;5033123;28;20040;-71
2023/11/30 10:54:54;;;;;;;29.73;27.48;;;7.20;99.90;;;;;;5031959;28;20052;-71
2023/11/30 10:57:21;;;;;;;34.30;31.67;;;7.20;99.90;;;;;;5029219;28;20040;-72
2023/11/30 10:59:49;;;;;;;35.75;33.20;;;7.30;99.90;;;;;;5045113;28;20513;-72
2023/11/30 11:02:16;;;;;;;33.67;31.48;;;7.30;99.90;;;;;;5030223;28;20033;-72
2023/11/30 11:04:42;;;;;;;36.35;33.95;;;7.40;99.90;;;;;;5031484;28;20037;-72
2023/11/30 11:07:10;;;;;;;58.35;54.67;;;7.50;99.90;;;;;;5047495;28;20037;-72
2023/11/30 11:09:43;;;;;;;41.35;38.85;;;7.60;99.90;;;;;;5041765;28;20026;-72
2023/11/30 11:12:23;;;;;;;53.90;50.85;;;7.70;99.90;;;;;;5044315;28;20040;-71
2023/11/30 11:14:49;;;;;;;28.48;26.67;;;7.80;99.90;;;;;;5036436;28;20032;-71
2023/11/30 11:17:15;;;;;;;27.27;25.63;;;7.90;99.90;;;;;;5035961;28;20034;-72
2023/11/30 11:19:43;;;;;;;26.88;25.17;;;8.00;99.90;;;;;;5029375;28;20510;-72
2023/11/30 11:22:16;;;;;;;35.83;33.72;;;8.10;99.90;;;;;;5027459;28;20044;-71
2023/11/30 11:24:42;;;;;;;24.95;23.23;;;8.10;99.90;;;;;;5031102;28;20033;-72
2023/11/30 11:27:09;;;;;;;37.28;34.92;;;8.10;99.90;;;;;;5046382;28;20033;-72
2023/11/30 11:29:35;;;;;;;41.95;39.50;;;8.10;99.90;;;;;;5029931;28;20052;-71
2023/11/30 11:32:02;;;;;;;35.47;33.42;;;8.30;99.90;;;;;;5011522;28;20044;-72
2023/11/30 11:34:30;;;;;;;27.38;25.67;;;8.40;99.90;;;;;;5046830;28;20037;-70
2023/11/30 11:36:57;;;;;;;29.58;27.83;;;8.50;99.90;;;;;;5026164;28;20077;-68
2023/11/30 11:39:23;;;;;;;25.88;24.33;;;8.50;99.90;;;;;;5033347;28;20021;-68
2023/11/30 11:41:49;;;;;;;22.77;21.13;;;8.50;99.90;;;;;;5031942;28;20060;-68
2023/11/30 11:44:15;;;;;;;38.75;36.63;;;8.50;99.90;;;;;;5029944;28;20040;-68
2023/11/30 11:46:42;;;;;;;22.95;21.45;;;8.50;99.90;;;;;;5031245;28;20414;-69
2023/11/30 11:49:08;;;;;;;28.38;26.42;;;8.50;99.90;;;;;;5032473;28;20056;-69
2023/11/30 11:51:47;;;;;;;29.10;27.05;;;8.50;99.90;;;;;;5033624;28;20033;-69
2023/11/30 11:54:19;;;;;;;26.25;24.42;;;8.60;99.90;;;;;;5010964;28;20037;-69
2023/11/30 11:56:50;;;;;;;22.52;21.02;;;8.60;99.90;;;;;;5024919;28;20048;-69
2023/11/30 11:59:22;;;;;;;28.13;26.42;;;8.70;99.90;;;;;;5030969;28;20033;-69
2023/11/30 12:01:50;;;;;;;28.58;26.77;;;8.70;99.90;;;;;;5031350;28;20040;-68
2023/11/30 12:04:45;;;;;;;24.27;22.67;;;8.70;99.90;;;;;;5031354;28;20041;-68
2023/11/30 12:07:12;;;;;;;20.85;19.38;;;8.70;99.90;;;;;;5026332;28;20042;-69
2023/11/30 12:09:39;;;;;;;25.10;23.50;;;8.80;99.90;;;;;;5031602;28;20036;-69
2023/11/30 12:12:08;;;;;;;22.38;20.88;;;8.80;99.90;;;;;;5046709;28;20486;-69
2023/11/30 12:14:34;;;;;;;26.35;24.55;;;8.90;99.90;;;;;;5046620;28;20033;-68
2023/11/30 12:17:01;;;;;;;23.98;22.38;;;8.90;99.90;;;;;;5030742;28;20045;-69
2023/11/30 12:19:30;;;;;;;21.65;20.23;;;8.80;99.90;;;;;;5030955;28;20042;-69
2023/11/30 12:21:56;;;;;;;23.65;21.92;;;8.90;99.90;;;;;;5031490;28;20037;-69
2023/11/30 12:24:22;;;;;;;22.80;21.13;;;8.80;99.90;;;;;;5031750;28;20049;-68
2023/11/30 12:26:49;;;;;;;30.35;28.50;;;8.80;99.90;;;;;;5031318;28;20037;-69
2023/11/30 12:29:15;;;;;;;29.92;27.95;;;8.90;99.90;;;;;;5031276;28;20068;-68
2023/11/30 12:31:41;;;;;;;29.83;28.02;;;9.00;99.90;;;;;;5016825;28;20037;-69